Time;durP1;ratioP1;P1;durP2;ratioP2;P2;SDS_P1;SDS_P2;PMS_P1;PMS_P2;Temp;Humidity;BMP_temperature;BMP_pressure;BME280_temperature;BME280_humidity;BME280_pressure;Samples;Min_cycle;Max_cycle;Signal;HPM_P1;HPM_P2
2022/05/21 00:00:36;;;;;;;15.25;4.93;;;;;;;20.52;50.63;101955.59;5061122;28;20297;-73
2022/05/21 00:03:03;;;;;;;9.52;4.10;;;;;;;20.71;51.75;101958.53;5029661;28;20438;-73
2022/05/21 00:05:30;;;;;;;8.40;3.97;;;;;;;20.99;50.71;101957.53;5013367;28;20128;-75
2022/05/21 00:07:56;;;;;;;9.75;5.18;;;;;;;22.43;46.52;101950.22;5014628;28;20132;-74
2022/05/21 00:10:23;;;;;;;11.40;5.43;;;;;;;21.22;49.76;101956.72;5060727;28;20034;-74
2022/05/21 00:12:49;;;;;;;13.43;5.10;;;;;;;22.07;47.24;101952.59;5063539;28;20049;-75
2022/05/21 00:15:17;;;;;;;9.32;3.97;;;;;;;21.03;49.62;101948.53;5031230;28;20026;-74
2022/05/21 00:17:43;;;;;;;9.48;4.53;;;;;;;21.04;51.10;101950.28;5029969;28;20032;-74
2022/05/21 00:20:47;;;;;;;13.38;4.45;;;;;;;21.95;48.44;101948.63;5029768;28;20100;-74
2022/05/21 00:22:56;;;;;;;12.07;5.72;;;;;;;21.02;51.29;101953.00;5031578;28;20138;-73
2022/05/21 00:25:22;;;;;;;11.73;4.07;;;;;;;21.18;51.29;101953.31;5031095;28;20025;-73
2022/05/21 00:27:49;;;;;;;12.05;3.78;;;;;;;21.86;47.65;101961.38;5063204;28;20049;-74
2022/05/21 00:30:15;;;;;;;8.40;3.78;;;;;;;22.17;47.95;101956.59;5030082;28;20034;-74
2022/05/21 00:32:40;;;;;;;9.32;3.83;;;;;;;22.29;47.72;101957.91;5062352;28;20037;-74
2022/05/21 00:35:07;;;;;;;12.45;3.90;;;;;;;22.08;47.48;101965.84;5057774;28;20033;-74
2022/05/21 00:37:32;;;;;;;11.18;4.30;;;;;;;23.18;45.09;101962.09;5063768;28;20117;-75
2022/05/21 00:39:58;;;;;;;14.13;5.00;;;;;;;21.73;48.62;101965.44;5010627;28;20108;-74
2022/05/21 00:42:23;;;;;;;10.55;4.88;;;;;;;20.72;52.12;101970.00;5061705;28;20099;-74
2022/05/21 00:44:48;;;;;;;8.73;4.78;;;;;;;21.35;50.29;101970.44;5029779;28;20059;-74
2022/05/21 00:47:13;;;;;;;14.00;5.80;;;;;;;21.96;49.07;101961.03;5029730;28;20383;-74
2022/05/21 00:49:39;;;;;;;14.98;6.35;;;;;;;22.45;47.56;101953.69;5030875;28;20029;-74
2022/05/21 00:52:14;;;;;;;11.90;5.45;;;;;;;22.27;47.34;101954.44;5062530;28;20021;-74
2022/05/21 00:54:54;;;;;;;11.77;5.03;;;;;;;22.98;45.92;101957.59;5061690;28;20396;-74
2022/05/21 00:57:28;;;;;;;11.23;4.65;;;;;;;22.38;47.15;101962.88;5056018;28;20025;-74
2022/05/21 01:00:04;;;;;;;13.02;5.82;;;;;;;22.11;47.72;101963.06;5030912;28;20048;-74
2022/05/21 01:02:34;;;;;;;15.00;5.05;;;;;;;22.27;47.47;101955.31;4997573;28;20025;-74
2022/05/21 01:05:02;;;;;;;15.70;6.15;;;;;;;22.62;46.85;101965.44;5062832;28;20366;-74
2022/05/21 01:07:28;;;;;;;13.88;5.25;;;;;;;22.98;45.64;101964.75;5031398;28;20070;-74
2022/05/21 01:09:57;;;;;;;10.93;3.28;;;;;;;20.54;53.55;101963.50;5031983;28;20508;-73
2022/05/21 01:12:26;;;;;;;15.63;2.95;;;;;;;21.12;51.77;101964.16;5035305;28;20029;-74
2022/05/21 01:14:57;;;;;;;11.43;3.22;;;;;;;21.98;49.14;101969.78;5033670;28;20487;-75
2022/05/21 01:17:23;;;;;;;15.82;3.45;;;;;;;21.38;50.85;101972.97;5065682;28;20142;-74
2022/05/21 01:20:05;;;;;;;17.58;3.28;;;;;;;21.57;50.79;101964.31;5066805;28;20031;-74
2022/05/21 01:22:40;;;;;;;12.98;2.50;;;;;;;20.93;52.30;101968.41;5066553;28;20405;-74
2022/05/21 01:25:06;;;;;;;15.15;2.55;;;;;;;21.33;51.08;101969.59;5014565;28;20025;-73
2022/05/21 01:27:32;;;;;;;9.20;2.35;;;;;;;20.43;53.07;101964.75;5031658;28;20420;-74
2022/05/21 01:30:00;;;;;;;23.08;3.83;;;;;;;20.12;54.04;101971.06;5033208;28;20021;-74
2022/05/21 01:32:25;;;;;;;10.32;2.55;;;;;;;21.15;50.05;101963.19;5066124;28;20032;-74
2022/05/21 01:34:51;;;;;;;16.52;3.10;;;;;;;21.43;50.24;101968.34;5032168;28;20029;-74
2022/05/21 01:37:16;;;;;;;14.43;3.45;;;;;;;20.98;50.59;101979.75;5031216;28;20040;-74
2022/05/21 01:39:42;;;;;;;12.48;2.00;;;;;;;20.43;52.74;101964.75;5032533;28;20017;-73
2022/05/21 01:42:07;;;;;;;6.10;1.92;;;;;;;20.23;53.79;101973.38;5066616;28;20071;-74
2022/05/21 01:44:39;;;;;;;10.98;2.90;;;;;;;21.88;48.72;101973.78;5064558;28;20481;-74
2022/05/21 01:47:10;;;;;;;13.27;2.88;;;;;;;21.64;48.97;101971.16;5031254;28;20029;-74
2022/05/21 01:49:37;;;;;;;17.20;3.53;;;;;;;21.94;48.83;101962.88;5033423;28;20056;-74
2022/05/21 01:52:04;;;;;;;15.75;2.70;;;;;;;20.41;53.35;101969.25;5033607;28;20040;-75
2022/05/21 01:54:31;;;;;;;12.63;2.35;;;;;;;20.14;53.42;101963.94;5033029;28;20018;-76
2022/05/21 01:56:56;;;;;;;20.42;3.33;;;;;;;20.78;50.96;101970.66;5064692;28;20025;-74
2022/05/21 01:59:21;;;;;;;10.52;3.25;;;;;;;20.52;52.87;101963.56;5032057;28;20028;-74
2022/05/21 02:01:48;;;;;;;14.73;2.53;;;;;;;20.86;51.13;101966.91;5033629;28;20029;-74
2022/05/21 02:04:15;;;;;;;13.48;3.30;;;;;;;19.57;55.55;101976.25;5034142;28;20018;-73
2022/05/21 02:06:40;;;;;;;16.92;3.63;;;;;;;20.02;54.81;101974.06;5033619;28;20032;-74
2022/05/21 02:09:05;;;;;;;15.45;2.13;;;;;;;20.66;51.81;101969.28;5033003;28;20034;-74
2022/05/21 02:11:31;;;;;;;20.02;2.38;;;;;;;20.15;52.38;101973.66;5031915;28;20116;-74
2022/05/21 02:13:56;;;;;;;14.25;2.63;;;;;;;19.91;54.36;101971.78;5032234;28;20028;-74
2022/05/21 02:16:21;;;;;;;13.75;2.88;;;;;;;19.85;53.87;101972.81;5064911;28;20615;-73
2022/05/21 02:18:47;;;;;;;9.32;2.10;;;;;;;20.35;52.05;101972.13;5032169;28;20421;-74
2022/05/21 02:21:12;;;;;;;13.43;2.65;;;;;;;21.22;49.83;101975.31;5066469;28;20501;-74
2022/05/21 02:23:37;;;;;;;12.80;2.65;;;;;;;20.43;51.09;101972.72;5031531;28;20109;-75
2022/05/21 02:26:03;;;;;;;15.43;2.35;;;;;;;20.11;53.67;101985.28;5032379;28;20022;-74
2022/05/21 02:28:29;;;;;;;17.30;2.38;;;;;;;21.12;50.06;101979.25;5065351;28;20056;-74
2022/05/21 02:30:55;;;;;;;13.10;2.88;;;;;;;20.03;53.31;101976.69;5032300;28;20030;-75
2022/05/21 02:33:21;;;;;;;15.88;2.35;;;;;;;20.49;53.58;101979.63;5031865;28;20040;-74
2022/05/21 02:35:46;;;;;;;18.73;2.50;;;;;;;20.06;54.64;101981.88;5033636;28;20034;-75
2022/05/21 02:40:55;;;;;;;20.48;3.28;;;;;;;20.00;53.77;101988.25;5033270;28;20535;-74
2022/05/21 02:43:21;;;;;;;17.08;2.83;;;;;;;20.26;53.96;101983.88;5030479;28;20021;-74
2022/05/21 02:45:47;;;;;;;18.73;2.85;;;;;;;20.78;51.78;101981.28;5030196;28;20476;-75
2022/05/21 02:48:12;;;;;;;20.83;2.83;;;;;;;20.56;51.85;101985.59;5031081;28;20060;-75
2022/05/21 02:50:38;;;;;;;10.07;2.35;;;;;;;19.87;53.86;101986.91;5032452;28;20436;-75
2022/05/21 02:53:06;;;;;;;17.58;2.42;;;;;;;19.77;53.39;101991.59;5064920;28;20025;-74
2022/05/21 02:55:32;;;;;;;14.57;2.28;;;;;;;20.61;52.54;101981.00;5030085;28;20033;-74
2022/05/21 02:57:57;;;;;;;8.85;2.22;;;;;;;20.16;52.36;101991.28;5031155;28;20081;-75
2022/05/21 03:00:29;;;;;;;22.48;3.13;;;;;;;20.23;52.72;101984.00;5030884;28;20371;-75
2022/05/21 03:02:55;;;;;;;15.15;2.13;;;;;;;20.80;50.96;101983.91;5032108;28;20021;-74
2022/05/21 03:05:21;;;;;;;9.13;2.03;;;;;;;20.46;52.05;101980.59;5031953;28;20021;-75
2022/05/21 03:07:49;;;;;;;17.23;2.13;;;;;;;20.45;51.65;101981.50;5062534;28;20025;-74
2022/05/21 03:10:23;;;;;;;13.98;2.42;;;;;;;20.56;51.00;101982.94;5032434;28;20175;-74
2022/05/21 03:12:54;;;;;;;18.90;3.00;;;;;;;19.45;54.02;101988.13;5046930;28;20207;-74
2022/05/21 03:15:23;;;;;;;12.82;3.33;;;;;;;21.19;49.50;101986.06;5031472;28;20477;-74
2022/05/21 03:17:49;;;;;;;13.85;2.28;;;;;;;20.38;51.67;101990.59;5030925;28;20033;-75
2022/05/21 03:20:17;;;;;;;11.60;2.15;;;;;;;20.12;51.12;101992.28;5031835;28;20017;-74
2022/05/21 03:22:43;;;;;;;11.88;2.30;;;;;;;20.74;49.69;101990.28;5030192;28;20036;-74
2022/05/21 03:25:10;;;;;;;13.23;2.22;;;;;;;21.26;48.25;101989.38;5064565;28;20412;-74
2022/05/21 03:27:35;;;;;;;10.27;2.33;;;;;;;20.48;49.43;102000.00;5029427;28;20060;-74
2022/05/21 03:30:07;;;;;;;18.80;2.83;;;;;;;20.02;51.15;101996.19;5062685;28;20033;-74
2022/05/21 03:32:33;;;;;;;15.70;2.35;;;;;;;19.67;51.33;102000.72;5029926;28;20022;-75
2022/05/21 03:34:58;;;;;;;19.13;2.30;;;;;;;19.50;51.82;101996.78;5032235;28;20144;-75
2022/05/21 03:37:23;;;;;;;11.43;2.00;;;;;;;19.75;51.50;102008.47;5063046;28;20029;-75
2022/05/21 03:39:49;;;;;;;8.60;1.65;;;;;;;20.17;51.13;102001.00;5047699;28;20022;-74
2022/05/21 03:42:14;;;;;;;14.77;2.72;;;;;;;20.74;48.38;102003.56;5031371;28;20056;-74
2022/05/21 03:44:39;;;;;;;12.77;2.67;;;;;;;19.27;52.14;101999.22;5031023;28;20083;-75
2022/05/21 03:47:05;;;;;;;9.88;2.60;;;;;;;19.95;49.78;102005.25;5031424;28;20044;-74
2022/05/21 03:49:30;;;;;;;14.80;2.10;;;;;;;20.68;47.65;102001.16;5063961;28;20029;-74
2022/05/21 03:51:56;;;;;;;14.77;2.22;;;;;;;20.79;47.35;101996.31;5028704;28;20029;-74
2022/05/21 03:54:21;;;;;;;11.03;1.97;;;;;;;20.68;48.41;101998.50;5030688;28;20076;-74
2022/05/21 03:56:47;;;;;;;12.70;1.88;;;;;;;20.23;49.09;102004.38;5031055;28;20075;-75
2022/05/21 03:59:13;;;;;;;16.80;2.55;;;;;;;20.82;47.05;102004.19;5028586;28;20397;-75
2022/05/21 04:01:40;;;;;;;11.40;2.05;;;;;;;19.39;50.34;102006.84;5031093;28;20017;-74
2022/05/21 04:04:05;;;;;;;13.70;2.45;;;;;;;20.33;48.56;102003.13;5029169;28;20609;-75
2022/05/21 04:06:31;;;;;;;13.18;2.30;;;;;;;21.25;45.74;101995.59;5030129;28;20037;-75
2022/05/21 04:08:56;;;;;;;8.18;1.90;;;;;;;19.06;50.09;102016.59;5030778;28;20018;-74
2022/05/21 04:11:21;;;;;;;7.60;1.92;;;;;;;19.98;48.77;101999.84;5028613;28;20029;-75
2022/05/21 04:13:47;;;;;;;9.32;2.28;;;;;;;19.42;49.83;102016.50;5024772;28;20057;-74
2022/05/21 04:16:12;;;;;;;10.80;2.55;;;;;;;19.54;50.31;102016.13;5030629;28;20027;-75
2022/05/21 04:18:37;;;;;;;10.45;1.77;;;;;;;20.58;46.63;102011.19;5031755;28;20063;-75
2022/05/21 04:21:03;;;;;;;11.15;2.05;;;;;;;18.82;50.54;102019.81;5062779;28;20060;-74
2022/05/21 04:23:28;;;;;;;16.33;3.03;;;;;;;19.57;50.05;102025.78;5064143;28;20032;-74
2022/05/21 04:25:53;;;;;;;13.15;1.70;;;;;;;20.67;46.20;102025.94;5028729;28;20029;-75
2022/05/21 04:28:19;;;;;;;20.75;3.15;;;;;;;19.67;48.84;102027.25;5029129;28;20517;-75
2022/05/21 04:30:44;;;;;;;11.25;2.67;;;;;;;19.78;48.49;102035.78;5030716;28;20029;-74
2022/05/21 04:33:09;;;;;;;13.20;2.10;;;;;;;19.34;49.57;102029.94;5012164;28;20124;-74
2022/05/21 04:38:19;;;;;;;17.05;2.08;;;;;;;20.25;47.12;102029.06;5031062;28;20037;-75
2022/05/21 04:40:44;;;;;;;8.98;1.70;;;;;;;20.43;46.52;102031.16;5028784;28;20026;-74
2022/05/21 04:43:10;;;;;;;15.15;3.20;;;;;;;20.34;47.77;102034.09;5029990;28;20025;-74
2022/05/21 04:45:35;;;;;;;14.23;2.97;;;;;;;20.49;47.06;102036.25;5032003;28;20033;-75
2022/05/21 04:48:06;;;;;;;12.30;2.55;;;;;;;21.27;44.75;102042.50;5028240;28;20029;-74
2022/05/21 04:50:34;;;;;;;13.18;3.25;;;;;;;21.25;44.83;102048.78;5061681;28;20064;-75
2022/05/21 04:52:59;;;;;;;12.18;1.98;;;;;;;21.88;42.73;102048.28;5030340;28;20041;-74
2022/05/21 04:55:25;;;;;;;10.70;2.10;;;;;;;20.07;47.31;102057.06;5030346;28;20021;-73
2022/05/21 04:57:50;;;;;;;13.15;1.77;;;;;;;20.05;46.84;102054.44;5020587;28;20056;-74
2022/05/21 05:00:16;;;;;;;15.82;2.22;;;;;;;21.54;44.17;102046.88;5049795;28;20392;-75
2022/05/21 05:02:41;;;;;;;12.63;2.05;;;;;;;20.78;45.13;102053.03;5028644;28;20049;-74
2022/05/21 05:05:08;;;;;;;9.32;2.28;;;;;;;20.65;46.72;102057.00;5030199;28;20032;-75
2022/05/21 05:07:34;;;;;;;9.60;1.98;;;;;;;21.03;45.21;102065.47;5028970;28;20446;-74
2022/05/21 05:09:59;;;;;;;11.55;2.35;;;;;;;21.12;44.83;102065.16;5046330;28;20029;-75
2022/05/21 05:12:25;;;;;;;13.23;2.80;;;;;;;21.59;44.54;102058.22;5029566;28;20060;-74
2022/05/21 05:14:50;;;;;;;14.63;2.42;;;;;;;20.46;46.04;102068.22;5045336;28;20052;-74
2022/05/21 05:17:15;;;;;;;10.40;1.63;;;;;;;19.85;47.64;102070.09;5030656;28;20046;-74
2022/05/21 05:19:41;;;;;;;22.77;2.22;;;;;;;20.75;45.80;102065.56;5021748;28;20029;-74
2022/05/21 05:22:09;;;;;;;10.73;2.15;;;;;;;20.96;45.33;102061.31;5053735;28;20477;-74
2022/05/21 05:24:36;;;;;;;8.63;1.50;;;;;;;19.95;47.70;102071.59;5030187;28;20133;-73
2022/05/21 05:27:02;;;;;;;10.90;2.17;;;;;;;18.74;50.90;102069.47;5008525;28;20073;-73
2022/05/21 05:29:28;;;;;;;14.05;3.03;;;;;;;19.57;49.87;102076.19;5025997;28;20026;-73
2022/05/21 05:31:54;;;;;;;10.55;2.58;;;;;;;20.31;47.53;102072.22;5026886;28;20026;-74
2022/05/21 05:34:19;;;;;;;11.93;2.10;;;;;;;21.14;45.96;102071.31;5019621;28;20083;-74
2022/05/21 05:36:47;;;;;;;16.55;2.10;;;;;;;21.56;44.83;102066.34;5029222;28;20024;-74
2022/05/21 05:39:13;;;;;;;13.30;2.10;;;;;;;20.99;46.03;102086.00;5029588;28;20017;-74
2022/05/21 05:41:39;;;;;;;11.30;1.50;;;;;;;20.77;45.77;102080.53;5028954;28;20053;-76
2022/05/21 05:44:05;;;;;;;10.40;1.98;;;;;;;19.94;48.66;102088.41;5028750;28;20076;-75
2022/05/21 05:46:31;;;;;;;7.03;1.83;;;;;;;21.61;44.64;102085.63;5030579;28;20025;-75
2022/05/21 05:48:56;;;;;;;14.75;2.10;;;;;;;21.51;44.22;102079.75;5029609;28;20025;-75
2022/05/21 05:51:21;;;;;;;12.27;1.77;;;;;;;20.72;46.40;102077.16;5029522;28;20057;-74
2022/05/21 05:53:48;;;;;;;8.48;1.85;;;;;;;20.48;46.37;102082.31;5028071;28;20032;-74
2022/05/21 05:56:14;;;;;;;8.60;2.20;;;;;;;21.14;45.49;102078.41;5032172;28;20523;-73
2022/05/21 06:01:25;;;;;;;13.55;2.22;;;;;;;22.04;43.04;102081.38;5033172;28;20508;-74
2022/05/21 06:03:51;;;;;;;10.13;1.50;;;;;;;20.98;44.71;102083.41;5066140;28;20028;-75
2022/05/21 06:06:17;;;;;;;12.23;2.70;;;;;;;21.56;44.37;102079.63;5032993;28;20030;-75
2022/05/21 06:08:43;;;;;;;9.50;2.55;;;;;;;21.93;43.77;102081.78;5033711;28;20028;-74
2022/05/21 06:11:12;;;;;;;14.65;2.25;;;;;;;22.27;42.91;102087.56;5031743;28;20051;-75
2022/05/21 06:13:38;;;;;;;12.35;2.38;;;;;;;21.18;44.80;102096.88;5030434;28;20449;-74
2022/05/21 06:16:04;;;;;;;14.00;2.67;;;;;;;20.63;46.11;102094.22;5054039;28;20053;-74
2022/05/21 06:18:29;;;;;;;10.38;1.83;;;;;;;21.65;44.39;102092.56;5013878;28;20045;-75
2022/05/21 06:20:59;;;;;;;12.70;2.17;;;;;;;21.67;43.74;102109.38;5013440;28;20465;-74
2022/05/21 06:23:24;;;;;;;7.10;1.50;;;;;;;20.28;46.76;102113.94;5013246;28;20072;-74
2022/05/21 06:25:50;;;;;;;13.68;1.98;;;;;;;22.20;43.46;102102.91;5030249;28;20428;-75
2022/05/21 06:28:15;;;;;;;10.05;2.58;;;;;;;22.75;41.73;102105.22;5032713;28;20102;-75
2022/05/21 06:30:42;;;;;;;5.82;1.83;;;;;;;23.12;40.37;102109.03;5032848;28;20456;-74
2022/05/21 06:33:34;;;;;;;12.23;2.10;;;;;;;23.63;39.23;102111.25;5032875;28;20488;-75
2022/05/21 06:36:09;;;;;;;11.80;1.90;;;;;;;24.96;36.24;102107.69;5030960;28;20424;-75
2022/05/21 06:38:35;;;;;;;14.73;2.13;;;;;;;25.56;35.37;102118.81;5030561;28;20306;-75
2022/05/21 06:41:02;;;;;;;7.63;1.70;;;;;;;25.68;34.66;102113.78;5031586;28;20025;-75
2022/05/21 06:43:27;;;;;;;10.23;1.90;;;;;;;27.83;32.35;102118.31;5033124;28;20056;-75
2022/05/21 06:45:53;;;;;;;9.48;1.60;;;;;;;28.40;31.64;102128.16;5032060;28;20563;-75
2022/05/21 06:48:18;;;;;;;14.48;1.83;;;;;;;27.73;31.77;102127.94;5033393;28;20033;-73
2022/05/21 06:50:43;;;;;;;15.68;2.20;;;;;;;28.31;31.55;102130.59;5047368;28;20546;-74
2022/05/21 06:53:09;;;;;;;13.05;2.13;;;;;;;27.81;31.41;102139.06;5025850;28;20061;-75
2022/05/21 06:55:34;;;;;;;8.82;1.98;;;;;;;28.84;30.78;102131.56;5027289;28;20401;-75
2022/05/21 06:57:59;;;;;;;5.65;1.70;;;;;;;30.56;28.09;102139.25;5030901;28;20473;-75
2022/05/21 07:00:25;;;;;;;8.80;1.48;;;;;;;29.74;28.12;102144.28;5060586;28;20376;-76
2022/05/21 07:02:53;;;;;;;8.82;1.60;;;;;;;29.03;29.43;102157.22;5035615;28;20120;-75
2022/05/21 07:08:13;;;;;;;8.88;2.10;;;;;;;28.84;29.17;102163.84;5013142;28;20068;-75
2022/05/21 07:10:39;;;;;;;6.95;1.70;;;;;;;29.24;29.38;102154.91;5064140;28;20393;-75
2022/05/21 07:13:04;;;;;;;10.90;1.40;;;;;;;30.05;27.93;102155.59;5034250;28;20025;-75
2022/05/21 07:15:30;;;;;;;7.65;1.65;;;;;;;30.28;28.19;102151.19;5032690;28;20390;-75
2022/05/21 07:18:00;;;;;;;11.80;1.98;;;;;;;27.85;30.89;102159.41;5033412;28;20043;-75
2022/05/21 07:20:26;;;;;;;8.43;1.85;;;;;;;27.47;31.82;102165.31;5032631;28;20032;-74
2022/05/21 07:22:52;;;;;;;8.60;2.25;;;;;;;28.05;31.08;102170.75;5033478;28;20045;-75
2022/05/21 07:25:23;;;;;;;7.38;1.70;;;;;;;28.77;31.02;102178.69;5036520;28;20022;-75
2022/05/21 07:27:49;;;;;;;9.18;2.00;;;;;;;27.26;31.98;102184.41;5012402;28;20168;-74
2022/05/21 07:30:15;;;;;;;14.88;1.90;;;;;;;29.56;30.76;102182.31;5050679;28;20030;-75
2022/05/21 07:32:41;;;;;;;13.55;2.13;;;;;;;28.87;30.37;102185.16;5040832;28;20033;-75
2022/05/21 07:35:10;;;;;;;11.48;1.92;;;;;;;27.84;31.88;102189.91;5028968;28;20429;-75
2022/05/21 07:37:36;;;;;;;10.55;2.65;;;;;;;27.98;31.15;102186.34;5031547;28;20136;-74
2022/05/21 07:40:03;;;;;;;10.88;1.52;;;;;;;27.86;30.16;102193.38;5032187;28;20045;-75
2022/05/21 07:42:28;;;;;;;11.10;2.00;;;;;;;28.93;29.67;102197.34;5046950;28;20507;-75
2022/05/21 07:44:53;;;;;;;11.32;1.92;;;;;;;29.91;28.72;102181.69;5030849;28;20033;-74
2022/05/21 07:47:23;;;;;;;8.13;1.60;;;;;;;27.21;31.13;102202.59;5032633;28;20155;-74
2022/05/21 07:49:50;;;;;;;6.60;1.75;;;;;;;28.52;30.23;102196.41;5030640;28;20025;-74
2022/05/21 07:52:16;;;;;;;8.75;1.70;;;;;;;28.33;29.87;102203.91;5030945;28;20052;-73
2022/05/21 07:54:41;;;;;;;9.13;1.70;;;;;;;28.54;30.51;102207.06;5032807;28;20045;-75
2022/05/21 07:57:06;;;;;;;14.30;1.92;;;;;;;28.89;30.06;102207.47;5036891;28;20020;-74
2022/05/21 07:59:32;;;;;;;9.27;1.38;;;;;;;27.14;31.84;102222.69;5047270;28;20524;-74
2022/05/21 08:01:57;;;;;;;9.32;1.50;;;;;;;27.52;31.31;102210.66;5032644;28;20044;-74
2022/05/21 08:04:22;;;;;;;8.35;1.52;;;;;;;28.43;30.42;102213.13;5030193;28;20140;-74
2022/05/21 08:06:48;;;;;;;12.70;2.17;;;;;;;28.80;30.03;102216.13;5064311;28;20486;-75
2022/05/21 08:09:13;;;;;;;5.80;1.58;;;;;;;28.22;31.05;102212.66;5031099;28;20068;-74
2022/05/21 08:11:38;;;;;;;8.02;1.98;;;;;;;27.23;31.98;102215.91;5060858;28;20393;-74
2022/05/21 08:14:04;;;;;;;10.32;2.17;;;;;;;26.99;32.28;102215.56;5063639;28;20025;-74
2022/05/21 08:16:30;;;;;;;9.93;1.80;;;;;;;27.16;32.84;102219.94;5030645;28;20488;-74
2022/05/21 08:18:56;;;;;;;6.20;1.77;;;;;;;25.76;35.26;102221.34;5030148;28;20075;-75
2022/05/21 08:21:21;;;;;;;9.85;1.83;;;;;;;25.94;34.71;102229.31;5035563;28;20501;-73
2022/05/21 08:29:14;;;;;;;13.38;2.05;;;;;;;27.82;31.32;102218.69;5032145;28;20044;-74
2022/05/21 08:31:40;;;;;;;7.40;1.88;;;;;;;28.39;30.87;102223.19;5039670;28;20025;-75
2022/05/21 08:34:05;;;;;;;11.10;2.58;;;;;;;29.55;29.44;102218.31;5032303;28;20072;-74
2022/05/21 08:36:30;;;;;;;11.70;2.05;;;;;;;28.82;28.72;102234.88;5030877;28;20029;-74
2022/05/21 08:38:56;;;;;;;10.68;1.67;;;;;;;29.82;28.86;102225.41;5030026;28;20029;-74
2022/05/21 08:41:25;;;;;;;14.02;3.33;;;;;;;30.97;28.56;102218.06;5030774;28;20504;-75
2022/05/21 08:44:06;;;;;;;10.90;2.35;;;;;;;31.99;27.17;102222.91;5030845;28;20493;-75
2022/05/21 08:46:50;;;;;;;8.13;1.42;;;;;;;29.50;29.07;102231.22;5030923;28;20465;-74
2022/05/21 08:49:16;;;;;;;10.45;1.63;;;;;;;29.42;28.03;102214.72;5032223;28;20040;-74
2022/05/21 08:51:58;;;;;;;4.95;1.80;;;;;;;29.14;29.32;102219.28;5030682;28;20038;-74
2022/05/21 08:54:26;;;;;;;5.85;1.10;;;;;;;27.43;31.76;102217.47;5029968;28;20052;-74
2022/05/21 08:56:54;;;;;;;13.50;1.83;;;;;;;29.47;30.31;102209.00;5030486;28;20092;-74
2022/05/21 08:59:24;;;;;;;14.88;2.10;;;;;;;29.67;30.25;102213.88;5023046;28;20022;-74
2022/05/21 09:01:51;;;;;;;9.15;1.73;;;;;;;28.36;30.70;102226.09;5012393;28;20080;-74
2022/05/21 09:04:16;;;;;;;13.10;2.08;;;;;;;27.61;31.36;102222.69;5043846;28;20092;-74
2022/05/21 09:06:51;;;;;;;20.10;2.15;;;;;;;26.16;33.48;102229.06;5029005;28;20025;-75
2022/05/21 09:09:35;;;;;;;9.57;1.80;;;;;;;27.13;32.62;102231.69;5030263;28;20037;-73
2022/05/21 09:12:17;;;;;;;11.63;1.75;;;;;;;27.19;31.97;102228.66;5030608;28;20029;-74
2022/05/21 09:14:45;;;;;;;9.75;1.73;;;;;;;28.21;31.76;102225.25;5029802;28;20112;-75
2022/05/21 09:17:13;;;;;;;12.93;1.77;;;;;;;27.29;32.09;102220.94;5031563;28;20603;-74
2022/05/21 09:19:50;;;;;;;10.13;1.73;;;;;;;26.71;31.59;102230.56;5027450;28;20047;-75
2022/05/21 09:22:17;;;;;;;9.10;1.80;;;;;;;27.11;31.43;102217.53;5048222;28;20037;-75
2022/05/21 09:24:56;;;;;;;13.68;1.90;;;;;;;27.66;31.19;102217.91;5030401;28;20032;-75
2022/05/21 09:27:42;;;;;;;10.25;2.17;;;;;;;27.29;32.08;102214.72;5030124;28;20052;-75
2022/05/21 09:30:20;;;;;;;15.57;2.20;;;;;;;28.61;31.09;102211.91;5035242;28;20421;-75
2022/05/21 09:32:52;;;;;;;8.75;1.65;;;;;;;28.20;30.20;102218.13;5034246;28;20030;-75
2022/05/21 09:35:23;;;;;;;10.27;1.80;;;;;;;27.56;31.29;102222.94;5033446;28;20036;-75
2022/05/21 09:37:49;;;;;;;10.23;2.03;;;;;;;27.08;33.24;102226.63;5032692;28;20477;-75
2022/05/21 09:40:34;;;;;;;12.50;2.88;;;;;;;28.38;31.81;102228.69;5047725;28;20024;-76
2022/05/21 09:45:47;;;;;;;11.30;1.95;;;;;;;27.61;31.69;102228.91;5055508;28;20086;-75
2022/05/21 09:48:16;;;;;;;7.97;1.63;;;;;;;28.21;31.04;102219.88;5053861;28;20107;-76
2022/05/21 09:50:59;;;;;;;12.40;1.98;;;;;;;28.71;29.98;102211.34;5040627;28;20063;-75
2022/05/21 09:53:38;;;;;;;9.85;2.60;;;;;;;29.03;29.76;102227.19;5033605;28;20061;-75
2022/05/21 09:56:05;;;;;;;6.95;1.42;;;;;;;27.48;31.73;102220.75;5033489;28;20021;-75
2022/05/21 09:58:38;;;;;;;9.20;1.80;;;;;;;27.86;31.81;102230.09;5033543;28;20056;-75
2022/05/21 10:01:05;;;;;;;10.95;2.25;;;;;;;27.73;31.15;102230.00;5033319;28;20445;-75
2022/05/21 10:03:45;;;;;;;7.75;1.73;;;;;;;29.45;29.18;102233.34;5032886;28;20025;-76
2022/05/21 10:06:36;;;;;;;10.80;2.13;;;;;;;27.68;31.90;102240.16;5034001;28;20033;-75
2022/05/21 10:12:39;;;;;;;14.15;1.75;;;;;;;27.98;30.99;102239.22;5034926;28;20095;-75
2022/05/21 10:15:11;;;;;;;7.53;1.58;;;;;;;26.96;33.12;102245.25;5032628;28;20039;-75
2022/05/21 10:17:42;;;;;;;13.25;1.88;;;;;;;27.91;32.27;102247.66;5032594;28;20389;-74
2022/05/21 10:20:07;;;;;;;14.30;2.92;;;;;;;27.43;31.75;102261.25;5033323;28;20056;-74
2022/05/21 10:22:47;;;;;;;7.97;2.08;;;;;;;27.54;31.54;102257.09;5033271;28;20061;-75
2022/05/21 10:25:21;;;;;;;10.32;2.40;;;;;;;29.22;29.41;102256.41;5015378;28;20520;-75
2022/05/21 10:28:21;;;;;;;14.23;2.60;;;;;;;29.76;28.39;102253.66;5016736;28;20053;-75
2022/05/21 10:31:44;;;;;;;11.73;2.03;;;;;;;30.89;27.58;102248.31;5042631;28;20040;-75
2022/05/21 10:34:33;;;;;;;9.83;2.00;;;;;;;28.16;30.59;102256.06;5035165;28;20068;-75
2022/05/21 10:37:36;;;;;;;15.25;2.95;;;;;;;28.90;30.09;102252.22;5034929;28;20103;-75
2022/05/21 10:40:08;;;;;;;7.68;2.50;;;;;;;29.10;30.19;102247.38;5029578;28;20061;-75
2022/05/21 10:42:36;;;;;;;8.25;2.22;;;;;;;28.69;31.02;102256.34;5034477;28;20065;-75
2022/05/21 10:45:24;;;;;;;14.40;2.28;;;;;;;28.77;30.52;102248.63;5031675;28;20037;-75
2022/05/21 10:48:28;;;;;;;13.80;2.40;;;;;;;29.49;29.26;102260.94;5023217;28;20168;-75
2022/05/21 10:51:18;;;;;;;11.50;2.63;;;;;;;27.17;32.02;102259.22;5025062;28;20037;-75
2022/05/21 10:53:48;;;;;;;11.13;2.22;;;;;;;26.38;33.46;102255.59;5031884;28;20124;-75
2022/05/21 10:56:29;;;;;;;5.43;1.80;;;;;;;25.50;34.22;102266.38;5032631;28;20021;-75
2022/05/21 10:59:32;;;;;;;10.57;2.22;;;;;;;27.38;32.15;102258.00;5031877;28;20121;-75
2022/05/21 11:02:16;;;;;;;10.13;2.10;;;;;;;27.30;32.61;102262.94;5029257;28;20037;-75
2022/05/21 11:04:50;;;;;;;10.30;2.22;;;;;;;28.35;31.16;102259.31;5041920;28;20051;-75
2022/05/21 11:07:48;;;;;;;7.35;1.52;;;;;;;26.23;34.46;102258.13;5051549;28;20182;-75
2022/05/21 11:10:29;;;;;;;9.43;1.88;;;;;;;26.95;32.91;102254.25;5052184;28;20028;-74
2022/05/21 11:13:01;;;;;;;9.98;1.70;;;;;;;28.35;31.95;102258.47;5052718;28;20033;-75
2022/05/21 11:15:50;;;;;;;9.95;1.77;;;;;;;26.32;34.21;102267.47;5047619;28;20041;-75
2022/05/21 11:18:34;;;;;;;7.80;1.60;;;;;;;29.18;30.85;102271.94;5030046;28;20048;-75
2022/05/21 11:21:06;;;;;;;11.73;1.70;;;;;;;29.34;29.55;102262.84;5031933;28;20135;-75
2022/05/21 11:23:34;;;;;;;6.85;1.40;;;;;;;30.35;26.71;102267.56;5032349;28;20112;-75
2022/05/21 11:26:10;;;;;;;9.48;1.60;;;;;;;28.25;30.14;102275.16;5032644;28;20429;-74
2022/05/21 11:28:52;;;;;;;9.68;1.58;;;;;;;28.45;29.51;102264.97;5030873;28;20057;-75
2022/05/21 11:37:21;;;;;;;10.88;1.80;;;;;;;27.33;31.91;102267.25;5025040;28;20051;-74
2022/05/21 11:39:54;;;;;;;9.15;2.50;;;;;;;27.79;32.66;102264.53;5032624;28;20110;-75
2022/05/21 11:42:25;;;;;;;13.63;2.35;;;;;;;28.61;30.17;102263.00;5035820;28;20033;-76
2022/05/21 11:45:01;;;;;;;8.00;1.35;;;;;;;27.08;32.45;102260.63;5064904;28;20540;-74
2022/05/21 11:47:27;;;;;;;7.68;1.27;;;;;;;27.98;31.77;102260.72;5031391;28;20052;-74
2022/05/21 11:50:10;;;;;;;12.57;1.85;;;;;;;28.63;30.97;102260.25;5064172;28;20065;-74
2022/05/21 11:52:35;;;;;;;6.65;2.13;;;;;;;26.99;32.21;102262.00;5016078;28;20507;-74
2022/05/21 11:55:13;;;;;;;7.47;1.70;;;;;;;27.02;33.06;102260.97;5060825;28;20065;-73
2022/05/21 11:57:41;;;;;;;7.55;1.10;;;;;;;27.59;31.84;102271.97;5031207;28;20025;-75